createdAt,value
2018-09-08T00:01:19.954Z,14.80
2018-09-08T00:03:47.787Z,14.80
2018-09-08T00:06:19.816Z,14.80
2018-09-08T00:08:47.545Z,14.90
2018-09-08T00:11:15.283Z,14.90
2018-09-08T00:13:42.986Z,14.90
2018-09-08T00:16:16.133Z,14.90
2018-09-08T00:18:49.238Z,14.90
2018-09-08T00:21:22.520Z,14.90
2018-09-08T00:23:55.693Z,15.00
2018-09-08T00:26:28.906Z,15.00
2018-09-08T00:29:02.684Z,15.10
2018-09-08T00:31:30.425Z,15.10
2018-09-08T00:33:58.129Z,15.10
2018-09-08T00:36:25.844Z,15.10
2018-09-08T00:38:53.534Z,15.10
2018-09-08T00:41:21.265Z,15.00
2018-09-08T00:43:48.989Z,15.00
2018-09-08T00:46:16.694Z,15.00
2018-09-08T00:48:44.413Z,14.90
2018-09-08T00:51:12.113Z,14.80
2018-09-08T00:53:39.844Z,14.80
2018-09-08T00:56:07.587Z,14.80
2018-09-08T00:58:35.310Z,14.80
2018-09-08T01:01:03.027Z,14.80
2018-09-08T01:03:30.774Z,14.80
2018-09-08T01:05:58.494Z,14.70
2018-09-08T01:08:26.219Z,14.60
2018-09-08T01:10:53.949Z,14.60
2018-09-08T01:13:21.657Z,14.60
2018-09-08T01:15:49.380Z,14.60
2018-09-08T01:18:17.127Z,14.50
2018-09-08T01:20:44.849Z,14.40
2018-09-08T01:23:12.570Z,14.30
2018-09-08T01:25:40.294Z,14.30
2018-09-08T01:28:08.001Z,14.40
2018-09-08T01:30:35.726Z,14.30
2018-09-08T01:33:03.649Z,14.30
2018-09-08T01:35:31.345Z,14.30
2018-09-08T01:37:59.073Z,14.20
2018-09-08T01:40:26.777Z,14.20
2018-09-08T01:42:54.489Z,14.30
2018-09-08T01:45:22.188Z,14.30
2018-09-08T01:47:49.901Z,14.50
2018-09-08T01:50:17.593Z,14.50
2018-09-08T01:52:45.322Z,14.50
2018-09-08T01:55:13.038Z,14.50
2018-09-08T01:57:40.741Z,14.60
2018-09-08T02:00:09.665Z,14.60
2018-09-08T02:02:37.526Z,14.60
2018-09-08T02:05:05.826Z,14.70
2018-09-08T02:07:33.539Z,14.70
2018-09-08T02:10:01.265Z,14.70
2018-09-08T02:12:28.977Z,14.60
2018-09-08T02:14:56.701Z,14.70
2018-09-08T02:17:24.405Z,14.70
2018-09-08T02:19:52.498Z,14.70
2018-09-08T02:22:20.221Z,14.80
2018-09-08T02:24:47.956Z,14.80
2018-09-08T02:27:16.424Z,14.90
2018-09-08T02:29:44.133Z,14.80
2018-09-08T02:32:11.926Z,14.80
2018-09-08T02:34:39.641Z,14.80
2018-09-08T02:37:07.375Z,14.80
2018-09-08T02:39:35.090Z,14.80
2018-09-08T02:42:02.821Z,14.80
2018-09-08T02:44:30.521Z,14.80
2018-09-08T02:46:58.258Z,14.80
2018-09-08T02:49:30.409Z,14.70
2018-09-08T02:51:57.545Z,14.80
2018-09-08T02:54:24.676Z,14.70
2018-09-08T02:56:51.818Z,14.60
2018-09-08T02:59:18.958Z,14.60
2018-09-08T03:01:46.066Z,14.60
2018-09-08T03:04:13.205Z,14.50
2018-09-08T03:06:40.319Z,14.50
2018-09-08T03:09:07.458Z,14.40
2018-09-08T03:11:35.153Z,14.40
2018-09-08T03:14:02.289Z,14.40
2018-09-08T03:16:29.414Z,14.30
2018-09-08T03:18:56.549Z,14.30
2018-09-08T03:21:23.682Z,14.30
2018-09-08T03:23:50.828Z,14.30
2018-09-08T03:26:17.937Z,14.20
2018-09-08T03:28:45.078Z,14.20
2018-09-08T03:31:12.203Z,14.10
2018-09-08T03:33:39.349Z,14.10
2018-09-08T03:36:06.468Z,14.00
2018-09-08T03:38:33.617Z,14.10
2018-09-08T03:41:00.869Z,14.10
2018-09-08T03:43:28.157Z,14.00
2018-09-08T03:45:55.305Z,14.00
2018-09-08T03:48:22.420Z,14.00
2018-09-08T03:50:49.569Z,14.00
2018-09-08T03:53:16.698Z,13.90
2018-09-08T03:55:43.838Z,13.90
2018-09-08T03:58:10.970Z,13.80
2018-09-08T04:00:38.113Z,13.70
2018-09-08T04:03:05.831Z,13.70
2018-09-08T04:05:33.614Z,13.60
2018-09-08T04:08:01.341Z,13.60
2018-09-08T04:10:29.132Z,13.60
2018-09-08T04:12:56.853Z,13.60
2018-09-08T04:15:24.576Z,13.60
2018-09-08T04:17:52.317Z,13.50
2018-09-08T04:20:20.033Z,13.50
2018-09-08T04:22:47.801Z,13.50
2018-09-08T04:25:15.517Z,13.40
2018-09-08T04:27:43.265Z,13.30
2018-09-08T04:30:10.988Z,13.20
2018-09-08T04:32:38.729Z,13.20
2018-09-08T04:35:06.470Z,13.10
2018-09-08T04:37:34.217Z,13.00
2018-09-08T04:40:01.956Z,12.90
2018-09-08T04:42:29.697Z,12.90
2018-09-08T04:44:57.733Z,12.90
2018-09-08T04:47:25.445Z,12.80
2018-09-08T04:49:53.200Z,12.80
2018-09-08T04:52:20.939Z,12.70
2018-09-08T04:54:48.685Z,12.60
2018-09-08T04:57:16.414Z,12.60
2018-09-08T04:59:44.153Z,12.60
2018-09-08T05:02:11.882Z,12.50
2018-09-08T05:04:39.616Z,12.40
2018-09-08T05:07:07.345Z,12.40
2018-09-08T05:09:35.122Z,12.40
2018-09-08T05:12:03.293Z,12.40
2018-09-08T05:14:31.093Z,12.30
2018-09-08T05:16:58.863Z,12.20
2018-09-08T05:19:26.549Z,12.20
2018-09-08T05:21:56.458Z,12.20
2018-09-08T05:24:24.176Z,12.10
2018-09-08T05:26:53.279Z,12.10
2018-09-08T05:29:22.263Z,12.10
2018-09-08T05:31:50.034Z,12.10
2018-09-08T05:34:18.706Z,12.20
2018-09-08T05:36:48.028Z,12.20
2018-09-08T05:39:16.178Z,12.20
2018-09-08T05:41:45.866Z,12.10
2018-09-08T05:44:13.643Z,12.10
2018-09-08T05:46:42.874Z,12.10
2018-09-08T05:49:12.879Z,12.30
2018-09-08T05:51:42.137Z,12.50
2018-09-08T05:54:11.097Z,12.80
2018-09-08T05:56:39.641Z,13.80
2018-09-08T05:59:08.019Z,13.50
2018-09-08T06:01:35.986Z,13.10
2018-09-08T06:04:06.335Z,12.90
2018-09-08T06:06:35.404Z,13.00
2018-09-08T06:09:05.126Z,13.10
2018-09-08T06:11:32.841Z,13.20
2018-09-08T06:14:03.626Z,13.20
2018-09-08T06:16:33.565Z,13.40
2018-09-08T06:19:02.833Z,13.40
2018-09-08T06:21:31.014Z,13.60
2018-09-08T06:24:00.417Z,13.70
2018-09-08T06:26:29.374Z,13.80
2018-09-08T06:28:57.125Z,13.80
2018-09-08T06:31:26.673Z,13.90
2018-09-08T06:33:56.159Z,14.20
2018-09-08T06:36:25.656Z,14.80
2018-09-08T06:38:55.309Z,14.90
2018-09-08T06:41:24.743Z,15.40
2018-09-08T06:43:54.809Z,15.40
2018-09-08T06:46:22.581Z,15.30
2018-09-08T06:48:50.330Z,15.70
2018-09-08T06:51:18.045Z,15.40
2018-09-08T06:53:45.785Z,16.90
2018-09-08T06:56:13.513Z,17.10
2018-09-08T06:58:41.306Z,17.30
2018-09-08T07:01:09.222Z,18.80
2018-09-08T07:03:36.978Z,18.70
2018-09-08T07:06:04.697Z,20.00
2018-09-08T07:08:32.433Z,19.20
2018-09-08T07:11:00.149Z,19.30
2018-09-08T07:13:27.904Z,19.30
2018-09-08T07:15:55.633Z,19.20
2018-09-08T07:18:23.346Z,19.20
2018-09-08T07:20:51.100Z,19.00
2018-09-08T07:23:18.837Z,19.00
2018-09-08T07:25:46.568Z,19.20
2018-09-08T07:28:14.292Z,19.50
2018-09-08T07:30:42.047Z,19.50
2018-09-08T07:33:09.778Z,19.60
2018-09-08T07:35:37.517Z,19.90
2018-09-08T07:38:05.593Z,20.00
2018-09-08T07:40:33.506Z,20.30
2018-09-08T07:43:01.241Z,20.30
2018-09-08T07:45:29.109Z,20.20
2018-09-08T07:47:56.854Z,20.80
2018-09-08T07:50:24.566Z,21.10
2018-09-08T07:52:52.293Z,21.00
2018-09-08T07:55:20.005Z,21.00
2018-09-08T07:57:48.333Z,21.00
2018-09-08T08:00:16.089Z,21.20
2018-09-08T08:02:43.829Z,21.20
2018-09-08T08:05:11.566Z,22.10
2018-09-08T08:07:39.312Z,22.10
2018-09-08T08:10:07.204Z,22.30
2018-09-08T08:12:34.958Z,21.70
2018-09-08T08:15:02.686Z,21.90
2018-09-08T08:17:30.430Z,22.20
2018-09-08T08:19:58.145Z,22.10
2018-09-08T08:22:25.933Z,22.60
2018-09-08T08:24:53.661Z,23.00
2018-09-08T08:27:21.381Z,22.70
2018-09-08T08:29:49.124Z,23.10
2018-09-08T08:32:16.841Z,22.90
2018-09-08T08:34:44.582Z,23.20
2018-09-08T08:37:12.507Z,22.90
2018-09-08T08:39:40.396Z,23.20
2018-09-08T08:42:08.126Z,23.30
2018-09-08T08:44:35.871Z,23.70
2018-09-08T08:47:03.584Z,23.90
2018-09-08T08:49:31.317Z,23.80
2018-09-08T08:52:04.689Z,23.40
2018-09-08T08:54:37.501Z,22.90
2018-09-08T08:57:06.203Z,23.50
2018-09-08T08:59:33.944Z,24.00
2018-09-08T09:02:01.737Z,23.90
2018-09-08T09:04:29.487Z,24.30
2018-09-08T09:06:57.668Z,24.00
2018-09-08T09:09:25.001Z,23.30
2018-09-08T09:11:53.215Z,23.50
2018-09-08T09:14:20.533Z,24.10
2018-09-08T09:16:48.241Z,24.10
2018-09-08T09:19:31.817Z,23.50
2018-09-08T09:22:05.578Z,23.90
2018-09-08T09:24:39.373Z,24.20
2018-09-08T09:27:06.649Z,24.20
2018-09-08T09:29:34.369Z,24.50
2018-09-08T09:32:02.148Z,23.50
2018-09-08T09:34:29.849Z,23.70
2018-09-08T09:36:57.590Z,24.00
2018-09-08T09:39:25.309Z,24.30
2018-09-08T09:41:53.057Z,24.40
2018-09-08T09:44:20.793Z,24.30
2018-09-08T09:46:48.587Z,24.50
2018-09-08T09:49:16.306Z,24.40
2018-09-08T09:51:44.050Z,24.60
2018-09-08T09:54:11.817Z,24.30
2018-09-08T09:56:39.570Z,24.30
2018-09-08T09:59:07.302Z,24.60
2018-09-08T10:01:40.418Z,25.10
2018-09-08T10:04:08.193Z,24.40
2018-09-08T10:06:35.991Z,25.00
2018-09-08T10:09:04.766Z,24.80
2018-09-08T10:11:32.500Z,24.90
2018-09-08T10:14:00.270Z,25.00
2018-09-08T10:16:28.018Z,24.80
2018-09-08T10:18:55.803Z,25.20
2018-09-08T10:21:23.533Z,24.80
2018-09-08T10:24:04.348Z,24.60
2018-09-08T10:26:19.058Z,25.70
2018-09-08T10:28:46.825Z,26.10
2018-09-08T10:31:14.611Z,25.70
2018-09-08T10:33:42.522Z,25.70
2018-09-08T10:36:10.254Z,25.80
2018-09-08T10:38:38.017Z,25.80
2018-09-08T10:41:05.821Z,25.50
2018-09-08T10:43:33.569Z,23.80
2018-09-08T10:46:01.308Z,24.30
2018-09-08T10:48:29.066Z,26.10
2018-09-08T10:50:57.591Z,25.80
2018-09-08T10:53:25.260Z,24.40
2018-09-08T10:55:52.977Z,25.70
2018-09-08T10:58:20.714Z,25.60
2018-09-08T11:00:48.425Z,25.40
2018-09-08T11:03:16.162Z,26.00
2018-09-08T11:05:43.881Z,24.90
2018-09-08T11:08:11.624Z,26.10
2018-09-08T11:10:39.342Z,25.10
2018-09-08T11:13:07.080Z,25.60
2018-09-08T11:15:34.788Z,25.20
2018-09-08T11:18:02.597Z,26.50
2018-09-08T11:20:30.517Z,26.10
2018-09-08T11:22:58.285Z,26.60
2018-09-08T11:25:26.005Z,25.90
2018-09-08T11:27:53.801Z,25.20
2018-09-08T11:30:21.518Z,25.00
2018-09-08T11:32:49.266Z,24.70
2018-09-08T11:35:16.981Z,23.90
2018-09-08T11:37:44.693Z,24.50
2018-09-08T11:40:12.437Z,24.50
2018-09-08T11:42:40.157Z,24.60
2018-09-08T11:45:07.922Z,25.70
2018-09-08T11:47:35.649Z,26.40
2018-09-08T11:50:03.418Z,26.90
2018-09-08T11:52:31.141Z,27.20
2018-09-08T11:54:58.885Z,26.90
2018-09-08T11:57:26.610Z,26.70
2018-09-08T11:59:54.391Z,26.60
2018-09-08T12:02:22.171Z,26.70
2018-09-08T12:04:49.905Z,26.70
2018-09-08T12:07:17.718Z,26.50
2018-09-08T12:09:45.449Z,26.20
2018-09-08T12:12:13.180Z,25.90
2018-09-08T12:14:40.913Z,27.10
2018-09-08T12:17:08.659Z,26.30
2018-09-08T12:19:36.386Z,27.00
2018-09-08T12:22:04.185Z,28.00
2018-09-08T12:24:31.893Z,28.40
2018-09-08T12:26:59.656Z,27.40
2018-09-08T12:29:27.373Z,27.50
2018-09-08T12:31:55.104Z,27.00
2018-09-08T12:34:22.833Z,27.50
2018-09-08T12:36:50.641Z,27.10
2018-09-08T12:39:18.365Z,27.80
2018-09-08T12:41:46.101Z,28.00
2018-09-08T12:44:13.830Z,27.60
2018-09-08T12:46:41.566Z,27.70
2018-09-08T12:49:09.299Z,27.80
2018-09-08T12:51:37.024Z,27.70
2018-09-08T12:54:04.787Z,27.90
2018-09-08T12:56:32.498Z,27.90
2018-09-08T12:59:00.244Z,27.70
2018-09-08T13:01:27.961Z,27.60
2018-09-08T13:03:55.707Z,28.40
2018-09-08T13:06:23.429Z,28.90
2018-09-08T13:08:51.161Z,28.60
2018-09-08T13:11:18.872Z,27.50
2018-09-08T13:13:46.620Z,27.80
2018-09-08T13:16:14.338Z,27.30
2018-09-08T13:18:42.086Z,27.50
2018-09-08T13:21:09.882Z,27.00
2018-09-08T13:23:37.653Z,27.50
2018-09-08T13:26:05.389Z,27.40
2018-09-08T13:28:34.902Z,27.50
2018-09-08T13:31:02.697Z,26.70
2018-09-08T13:33:32.691Z,25.70
2018-09-08T13:36:00.501Z,25.80
2018-09-08T13:38:28.928Z,26.50
2018-09-08T13:40:58.200Z,26.50
2018-09-08T13:43:25.977Z,26.40
2018-09-08T13:45:56.424Z,26.30
2018-09-08T13:48:24.193Z,26.00
2018-09-08T13:50:53.318Z,25.50
2018-09-08T13:53:21.651Z,25.30
2018-09-08T13:55:49.722Z,25.80
2018-09-08T13:58:17.653Z,25.80
2018-09-08T14:00:46.745Z,26.20
2018-09-08T14:03:16.442Z,26.40
2018-09-08T14:05:46.126Z,26.20
2018-09-08T14:08:16.432Z,26.20
2018-09-08T14:10:46.891Z,25.50
2018-09-08T14:13:14.633Z,26.30
2018-09-08T14:15:44.780Z,25.40
2018-09-08T14:18:14.340Z,25.00
2018-09-08T14:20:42.245Z,25.20
2018-09-08T14:23:12.359Z,26.20
2018-09-08T14:25:41.648Z,25.90
2018-09-08T14:28:10.198Z,25.40
2018-09-08T14:30:40.306Z,25.30
2018-09-08T14:33:10.492Z,25.50
2018-09-08T14:35:38.408Z,26.20
2018-09-08T14:38:06.327Z,26.10
2018-09-08T14:40:34.057Z,26.10
2018-09-08T14:43:04.610Z,26.20
2018-09-08T14:45:32.377Z,25.80
2018-09-08T14:48:01.628Z,25.50
2018-09-08T14:50:29.581Z,25.70
2018-09-08T14:52:57.365Z,25.60
2018-09-08T14:55:25.095Z,25.90
2018-09-08T14:57:52.824Z,25.80
2018-09-08T15:00:20.562Z,26.00
2018-09-08T15:02:48.290Z,25.60
2018-09-08T15:05:16.033Z,25.20
2018-09-08T15:07:43.757Z,25.10
2018-09-08T15:10:11.506Z,25.20
2018-09-08T15:12:39.280Z,25.50
2018-09-08T15:15:07.262Z,25.10
2018-09-08T15:17:35.209Z,24.90
2018-09-08T15:20:02.985Z,25.30
2018-09-08T15:22:30.736Z,25.00
2018-09-08T15:24:58.473Z,24.80
2018-09-08T15:27:26.191Z,25.00
2018-09-08T15:29:53.934Z,25.10
2018-09-08T15:32:21.645Z,24.90
2018-09-08T15:34:49.381Z,25.10
2018-09-08T15:37:17.097Z,24.70
2018-09-08T15:39:44.840Z,24.60
2018-09-08T15:42:12.553Z,24.90
2018-09-08T15:44:40.271Z,24.50
2018-09-08T15:47:08.005Z,24.30
2018-09-08T15:49:35.738Z,24.30
2018-09-08T15:52:03.473Z,24.20
2018-09-08T15:54:31.205Z,24.00
2018-09-08T15:56:58.960Z,24.00
2018-09-08T15:59:26.681Z,23.90
2018-09-08T16:01:54.418Z,23.80
2018-09-08T16:04:22.154Z,23.80
2018-09-08T16:06:50.139Z,23.70
2018-09-08T16:09:17.894Z,23.50
2018-09-08T16:11:45.605Z,23.50
2018-09-08T16:14:13.602Z,23.40
2018-09-08T16:16:41.421Z,23.30
2018-09-08T16:19:09.161Z,23.10
2018-09-08T16:21:37.851Z,23.10
2018-09-08T16:24:05.665Z,23.10
2018-09-08T16:26:33.408Z,23.00
2018-09-08T16:29:01.189Z,22.90
2018-09-08T16:31:28.914Z,23.00
2018-09-08T16:33:56.645Z,22.90
2018-09-08T16:36:24.357Z,22.90
2018-09-08T16:38:52.179Z,22.80
2018-09-08T16:41:19.844Z,22.80
2018-09-08T16:43:47.562Z,22.60
2018-09-08T16:46:15.306Z,22.50
2018-09-08T16:48:43.034Z,22.50
2018-09-08T16:51:10.805Z,22.50
2018-09-08T16:53:38.531Z,22.40
2018-09-08T16:56:06.773Z,22.30
2018-09-08T16:58:34.593Z,22.20
2018-09-08T17:01:02.354Z,22.10
2018-09-08T17:03:30.061Z,22.10
2018-09-08T17:05:57.805Z,22.00
2018-09-08T17:08:25.545Z,21.90
2018-09-08T17:10:53.270Z,21.80
2018-09-08T17:13:21.021Z,21.60
2018-09-08T17:15:48.753Z,21.40
2018-09-08T17:18:16.514Z,21.00
2018-09-08T17:20:45.019Z,20.80
2018-09-08T17:23:12.805Z,20.70
2018-09-08T17:25:40.542Z,20.70
2018-09-08T17:28:08.374Z,20.70
2018-09-08T17:30:36.096Z,20.60
2018-09-08T17:33:03.855Z,20.40
2018-09-08T17:35:31.591Z,20.10
2018-09-08T17:37:59.351Z,19.90
2018-09-08T17:40:27.086Z,20.00
2018-09-08T17:42:54.821Z,19.90
2018-09-08T17:45:22.537Z,19.90
2018-09-08T17:47:50.252Z,19.70
2018-09-08T17:50:18.046Z,19.60
2018-09-08T17:52:45.763Z,19.60
2018-09-08T17:55:13.735Z,19.50
2018-09-08T17:57:41.620Z,19.30
2018-09-08T18:00:09.934Z,19.10
2018-09-08T18:02:39.290Z,18.90
2018-09-08T18:05:09.043Z,18.70
2018-09-08T18:07:40.007Z,18.60
2018-09-08T18:10:09.855Z,18.60
2018-09-08T18:12:37.617Z,18.50
2018-09-08T18:15:06.245Z,18.40
2018-09-08T18:17:34.153Z,18.40
2018-09-08T18:20:03.229Z,18.20
2018-09-08T18:22:32.554Z,18.10
2018-09-08T18:25:00.341Z,18.10
2018-09-08T18:27:28.928Z,18.00
2018-09-08T18:29:56.689Z,17.90
2018-09-08T18:32:25.045Z,17.70
2018-09-08T18:34:52.757Z,17.60
2018-09-08T18:37:22.649Z,17.60
2018-09-08T18:39:51.922Z,17.50
2018-09-08T18:42:22.746Z,17.50
2018-09-08T18:44:52.696Z,17.40
2018-09-08T18:47:22.712Z,17.30
2018-09-08T18:49:52.373Z,17.20
2018-09-08T18:52:20.154Z,17.20
2018-09-08T18:54:47.869Z,17.20
2018-09-08T18:57:16.676Z,17.10
2018-09-08T18:59:47.364Z,17.00
2018-09-08T19:02:16.148Z,16.90
2018-09-08T19:04:43.917Z,16.80
2018-09-08T19:07:11.630Z,16.70
2018-09-08T19:09:40.728Z,16.50
2018-09-08T19:12:10.334Z,16.50
2018-09-08T19:14:44.488Z,16.50
2018-09-08T19:17:15.852Z,16.50
2018-09-08T19:19:45.905Z,16.40
2018-09-08T19:22:13.685Z,16.30
2018-09-08T19:24:43.285Z,16.30
2018-09-08T19:27:11.106Z,16.20
2018-09-08T19:29:46.139Z,16.10
2018-09-08T19:32:15.175Z,16.10
2018-09-08T19:34:44.213Z,16.10
2018-09-08T19:37:13.672Z,16.10
2018-09-08T19:39:41.473Z,16.00
2018-09-08T19:42:10.299Z,16.00
2018-09-08T19:44:39.437Z,16.00
2018-09-08T19:47:14.453Z,15.90
2018-09-08T19:49:42.281Z,15.80
2018-09-08T19:52:16.203Z,15.80
2018-09-08T19:54:45.704Z,15.60
2018-09-08T19:57:19.695Z,15.60
2018-09-08T19:59:48.551Z,15.50
2018-09-08T20:02:16.314Z,15.50
2018-09-08T20:04:45.219Z,15.50
2018-09-08T20:07:12.993Z,15.50
2018-09-08T20:09:42.070Z,15.40
2018-09-08T20:12:11.236Z,15.40
2018-09-08T20:14:39.009Z,15.30
2018-09-08T20:17:06.736Z,15.30
2018-09-08T20:19:35.949Z,15.40
2018-09-08T20:22:05.491Z,15.30
2018-09-08T20:24:34.795Z,15.30
2018-09-08T20:27:04.479Z,15.20
2018-09-08T20:29:34.357Z,15.10
2018-09-08T20:32:04.009Z,15.10
2018-09-08T20:34:33.743Z,14.90
2018-09-08T20:37:04.491Z,14.80
2018-09-08T20:39:34.409Z,14.90
2018-09-08T20:42:04.084Z,14.90
2018-09-08T20:44:33.307Z,14.80
2018-09-08T20:47:01.864Z,14.80
2018-09-08T20:49:29.858Z,14.80
2018-09-08T20:51:58.366Z,14.80
2018-09-08T20:54:26.097Z,14.80
2018-09-08T20:56:53.836Z,14.80
2018-09-08T20:59:21.565Z,14.70
2018-09-08T21:01:49.609Z,14.60
2018-09-08T21:04:17.317Z,14.60
2018-09-08T21:06:45.056Z,14.50
2018-09-08T21:09:12.770Z,14.50
2018-09-08T21:11:40.965Z,14.50
2018-09-08T21:14:08.841Z,14.50
2018-09-08T21:16:37.214Z,14.50
2018-09-08T21:19:05.160Z,14.40
2018-09-08T21:21:33.163Z,14.30
2018-09-08T21:24:01.095Z,14.20
2018-09-08T21:26:29.292Z,14.20
2018-09-08T21:28:57.654Z,14.10
2018-09-08T21:31:25.385Z,14.20
2018-09-08T21:33:53.905Z,14.20
2018-09-08T21:36:21.665Z,14.10
2018-09-08T21:38:49.377Z,14.00
2018-09-08T21:41:17.145Z,13.90
2018-09-08T21:43:44.881Z,14.00
2018-09-08T21:46:12.604Z,14.00
2018-09-08T21:48:40.338Z,13.90
2018-09-08T21:51:08.077Z,13.90
2018-09-08T21:53:35.799Z,13.90
2018-09-08T21:56:03.537Z,13.80
2018-09-08T21:58:31.254Z,13.80
2018-09-08T22:01:34.005Z,13.80
2018-09-08T22:04:01.720Z,13.80
2018-09-08T22:06:29.449Z,13.80
2018-09-08T22:08:57.156Z,13.70
2018-09-08T22:11:24.896Z,13.60
2018-09-08T22:13:52.640Z,13.50
2018-09-08T22:16:20.363Z,13.60
2018-09-08T22:18:48.104Z,13.50
2018-09-08T22:21:15.818Z,13.50
2018-09-08T22:23:43.613Z,13.50
2018-09-08T22:26:11.350Z,13.50
2018-09-08T22:28:39.093Z,13.40
2018-09-08T22:31:06.805Z,13.30
2018-09-08T22:33:34.548Z,13.30
2018-09-08T22:36:02.257Z,13.30
2018-09-08T22:38:29.993Z,13.20
2018-09-08T22:40:57.721Z,13.20
2018-09-08T22:43:25.452Z,13.10
2018-09-08T22:45:53.161Z,13.10
2018-09-08T22:48:20.878Z,13.00
2018-09-08T22:50:48.670Z,13.00
2018-09-08T22:53:16.365Z,13.00
2018-09-08T22:55:44.093Z,13.00
2018-09-08T22:58:11.801Z,13.00
2018-09-08T23:00:39.537Z,13.00
2018-09-08T23:03:07.381Z,13.10
2018-09-08T23:05:35.114Z,13.00
2018-09-08T23:08:02.852Z,12.90
2018-09-08T23:10:30.594Z,12.90
2018-09-08T23:12:58.336Z,12.80
2018-09-08T23:15:26.217Z,12.70
2018-09-08T23:17:53.932Z,12.70
2018-09-08T23:20:21.669Z,12.80
2018-09-08T23:22:49.406Z,12.90
2018-09-08T23:25:17.150Z,12.90
2018-09-08T23:27:44.856Z,12.90
2018-09-08T23:30:12.592Z,12.90
2018-09-08T23:32:40.304Z,12.90
2018-09-08T23:35:08.069Z,12.80
2018-09-08T23:37:35.781Z,12.90
2018-09-08T23:40:03.599Z,12.80
2018-09-08T23:42:31.353Z,12.80
2018-09-08T23:44:59.061Z,12.90
2018-09-08T23:47:26.805Z,12.90
2018-09-08T23:49:54.693Z,12.80
2018-09-08T23:52:22.420Z,12.70
2018-09-08T23:54:50.426Z,12.80
2018-09-08T23:57:18.310Z,12.70
2018-09-08T23:59:46.030Z,12.80
